Terminal Aerodrome Forecast
Issued by NWS Newport/Morehead City, NC

Home | Current Version | Previous Version | Graphics & Text | Print | Product List | Glossary On
Versions: 1 2 3 4 5 6 7 8 9 10 11 12 13 14 15 16 17
038
FTUS42 KMHX 111720
TAFEWN
TAF
KEWN 111720Z 1118/1218 29011G18KT P6SM SKC
     FM112200 VRB03KT P6SM SKC
     FM121100 04004KT P6SM BKN100
     FM121400 05007KT 6SM -SN OVC020=

USA.gov is the U.S. government's official web portal to all federal, state and local government web resources and services.